MMUN 090746Z 10005KT 7SM SKC 24/23 A3001 RMK SC= 090748

MMUN 090646Z 09006KT 7SM FEW015 24/23 A3003 RMK 8/500= 090648

MMUN 090545Z 10006KT 7SM FEW015 25/23 A3003 RMK SLP169 57007 900 8/500= 090546

MMUN 090447Z 10006KT 7SM SCT015 26/23 A3004 RMK 8/500= 090448

MMUN 090348Z 10007KT 7SM SCT015 26/23 A3005 RMK 8/500= 090349

MMUN 090247Z 09007KT 7SM SCT015 27/23 A3005 RMK SLP176 52012 904 8/500= 090249

MMUN 090147Z 10007KT 7SM SCT015 27/24 A3004 RMK 8/500= 090148

MMUN 090043Z 10008KT 7SM FEW015 27/25 A3003 RMK 8/500= 090044

MMUN 082346Z 10009KT 7SM FEW015 27/24 A3001 RMK SLP164 52003 904 8/500 CI= 082348

MMUN 082247Z 13005KT 7SM SCT015 28/24 A3001 RMK 8/100 CI= 082247

MMUN 082148Z 11008KT 7SM BKN015 28/24 A3000 RMK 8/100= 082148

MMUN 082052Z 10009KT 7SM SCT015 29/23 A3000 RMK SLP161 57016 904 8/100= 082054

MMUN 081952Z 11011KT 7SM SCT015 29/23 A3001 RMK 8/100= 081953

MMUN 081845Z 11013KT 7SM SCT015 30/24 A3002 RMK 8/100= 081846

MMUN 081752Z 11010KT 7SM SCT015 29/24 A3005 RMK SLP177 57013 901 8/100= 081753

MMUN 081640Z 10011KT 7SM SCT015 29/23 A3008 RMK 8/100 CI= 081641

MMUN 081546Z 10006KT 7SM SCT015 29/23 A3009 RMK 8/100 SC CI= 081547

MMUN 081443Z 07007KT 7SM SCT015 28/23 A3009 RMK SLP190 52029 907 8/100 MDT CU SC= 081445

MMUN 081344Z 11003KT 7SM SCT015 27/23 A3006 RMK 8/500 CU CI= 081345

MMUN 081242Z 00000KT 7SM SCT015 22/22 A3004 RMK 8/500= 081243

MMUN 081144Z 00000KT 7SM SCT015 SCT250 23/22 A3001 RMK SLP161 52012 951 8/508= 081145

MMUN 081047Z 12003KT 7SM FEW015 25/23 A2998 RMK 8/500= 081048

MMUN 080947Z 11005KT 7SM FEW015 25/22 A2997 RMK 8/500= 080948

MMUN 080848Z 11005KT 7SM FEW015 25/22 A2997 RMK SLP149 57020 962 8/500= 080848

MMUN 080747Z 11004KT 7SM FEW015 24/23 A2998 RMK 8/500= 080747

MMUN 080650Z 12003KT 7SM FEW015 22/22 A3001 RMK 8/500= 080650

MMUN 080543Z 00000KT 7SM FEW015 23/22 A3002 RMK SLP169 57003 952 8/500= 080544

MMUN 080448Z 09003KT 7SM SCT015 24/23 A3004 RMK 8/500= 080448

MMUN 080345Z 09004KT 7SM FEW015 25/23 A3004 RMK 8/500= 080345

MMUN 080245Z 10004KT 7SM SCT015 25/23 A3004 RMK SLP172 52012 951 8/500= 080245

MMUN 080144Z 11005KT 7SM SCT015 26/23 A3002 RMK 8/500= 080145

MMUN 080044Z 11004KT 7SM SCT015 26/23 A3001 RMK 8/500= 080045

MMUN 072343Z 11004KT 7SM SCT015 26/23 A3000 RMK SLP160 52003 902 8/100 MDT CU ISOL TCU= 072344

MMUN 072244Z 11003KT 7SM SCT015 27/24 A3000 RMK 8/100 MDT CU= 072245

MMUN 072144Z 11006KT 7SM SCT015 28/23 A2999 RMK 8/100 MDT CU ISOL TCU= 072145

MMUN 072044Z 11007KT 7SM BKN015 29/23 A2999 RMK SLP157 57019 903 8/100 MDT CU= 072045

MMUN 071953Z 09005KT 7SM SCT015 29/23 A3000 RMK 8/100 MDT CU= 071954

MMUN 071840Z 07007KT 7SM SCT015 29/23 A3002 RMK 8/100= 071840

MMUN 071741Z 12006KT 7SM SCT015 29/23 A3005 RMK SLP176 57007 905 8/100= 071742

MMUN 071641Z 08008KT 7SM SCT015 29/23 A3007 RMK 8/100= 071642

MMUN 071542Z 12010KT 7SM SCT015 28/24 A3007 RMK 8/100= 071543

MMUN 071440Z 10009KT 7SM SCT015 28/23 A3007 RMK SLP183 52021 901 8/100= 071441

MMUN 071348Z 10007KT 6SM FEW015 27/23 A3005 RMK 8/100 HZY= 071349

MMUN 071242Z 11003KT 6SM FEW015 25/23 A3004 RMK 8/100 HZY= 071243

MMUN 071146Z 00000KT 7SM SCT015 24/23 A3002 RMK SLP162 52001 956 8/100= 071147

MMUN 071047Z 00000KT 7SM SCT015 23/23 A3000 RMK 8/100= 071048

MMUN 070948Z 00000KT 7SM SCT015 23/23 A3000 RMK 8/500= 070949

MMUN 070848Z 00000KT 7SM FEW015 23/23 A3001 RMK SLP161 57010 953 8/500= 070850

MMUN 070744Z 00000KT 7SM SKC 23/23 A3001 RMK SC= 070745

MMUN 070645Z 00000KT 7SM SKC 24/23 A3003= 070645